Time;durP1;ratioP1;P1;durP2;ratioP2;P2;SDS_P1;SDS_P2;PMS_P1;PMS_P2;Temp;Humidity;BMP_temperature;BMP_pressure;BME280_temperature;BME280_humidity;BME280_pressure;Samples;Min_cycle;Max_cycle;Signal;HPM_P1;HPM_P2
2022/07/12 00:00:53;;;;;;;10.32;6.68;;;14.50;99.90;;;14.46;100.00;98221.31;5005967;28;128334;-71
2022/07/12 00:03:22;;;;;;;8.75;6.38;;;14.50;99.90;;;14.39;100.00;98214.59;5020841;28;120311;-71
2022/07/12 00:05:50;;;;;;;11.35;7.20;;;14.50;99.90;;;14.37;100.00;98210.69;5006135;28;118330;-71
2022/07/12 00:08:21;;;;;;;11.95;6.32;;;14.60;99.90;;;14.32;100.00;98198.13;5005672;28;129077;-73
2022/07/12 00:10:50;;;;;;;10.20;6.15;;;14.50;99.90;;;14.27;100.00;98203.88;5020616;28;129734;-71
2022/07/12 00:13:19;;;;;;;10.45;6.30;;;14.50;99.90;;;14.30;100.00;98196.91;5005449;28;118738;-76
2022/07/12 00:15:47;;;;;;;8.13;6.57;;;14.50;99.90;;;14.31;100.00;98193.81;5022557;28;118419;-69
2022/07/12 00:18:16;;;;;;;9.98;6.95;;;14.50;99.90;;;14.29;100.00;98193.41;5020546;28;130065;-72
2022/07/12 00:20:45;;;;;;;10.48;6.88;;;14.50;99.90;;;14.29;100.00;98187.94;5020151;28;129758;-73
2022/07/12 00:23:13;;;;;;;9.48;5.80;;;14.50;99.90;;;14.31;100.00;98177.44;5020331;28;119810;-72
2022/07/12 00:25:43;;;;;;;11.32;6.60;;;14.50;99.90;;;14.32;100.00;98172.78;5002213;28;119462;-71
2022/07/12 00:28:12;;;;;;;11.57;6.75;;;14.50;99.90;;;14.37;100.00;98165.06;4988623;28;128939;-73
2022/07/12 00:30:40;;;;;;;12.15;6.43;;;14.60;99.90;;;14.40;100.00;98160.81;5019352;28;129335;-72
2022/07/12 00:33:09;;;;;;;11.77;6.38;;;14.50;99.90;;;14.36;100.00;98155.28;5005268;28;118732;-76
2022/07/12 00:35:38;;;;;;;8.60;5.93;;;14.60;99.90;;;14.43;100.00;98153.81;5005852;28;118159;-76
2022/07/12 00:38:06;;;;;;;10.05;6.57;;;14.60;99.90;;;14.43;100.00;98153.81;5004709;28;129196;-74
2022/07/12 00:40:35;;;;;;;11.70;6.15;;;14.60;99.90;;;14.41;100.00;98145.22;5001798;28;129756;-74
2022/07/12 00:43:05;;;;;;;11.20;6.80;;;14.60;99.90;;;14.45;100.00;98140.59;5004532;28;121616;-75
2022/07/12 00:45:33;;;;;;;9.05;5.93;;;14.60;99.90;;;14.46;100.00;98134.78;5020009;28;121569;-73
2022/07/12 00:48:03;;;;;;;11.30;6.22;;;14.60;99.90;;;14.48;100.00;98128.94;5021695;28;128875;-74
2022/07/12 00:50:32;;;;;;;9.00;5.57;;;14.70;99.90;;;14.44;100.00;98117.19;5019820;28;130122;-71
2022/07/12 00:53:00;;;;;;;8.35;5.32;;;14.70;99.90;;;14.44;100.00;98106.28;5005190;28;118921;-71
2022/07/12 00:55:29;;;;;;;8.45;5.22;;;14.60;99.90;;;14.33;100.00;98093.25;5023096;28;119190;-73
2022/07/12 00:57:57;;;;;;;9.32;5.45;;;14.60;99.90;;;14.37;100.00;98098.78;5019788;28;130373;-77
2022/07/12 01:00:29;;;;;;;7.57;4.95;;;14.70;99.90;;;14.33;100.00;98079.63;5019787;28;130092;-73
2022/07/12 01:03:01;;;;;;;6.68;4.15;;;14.60;99.90;;;14.37;100.00;98094.09;5020058;28;119424;-73
2022/07/12 01:05:31;;;;;;;6.97;4.88;;;14.60;99.90;;;14.36;100.00;98078.88;5020294;28;119508;-72
2022/07/12 01:08:01;;;;;;;7.75;4.70;;;14.60;99.90;;;14.36;100.00;98078.09;5018169;28;129956;-72
2022/07/12 01:10:32;;;;;;;5.95;4.40;;;14.60;99.90;;;14.31;100.00;98081.94;5019718;28;129474;-75
2022/07/12 01:13:04;;;;;;;7.18;4.15;;;14.60;99.90;;;14.28;100.00;98066.31;5019873;28;118870;-72
2022/07/12 01:15:34;;;;;;;6.70;4.00;;;14.50;99.90;;;14.22;100.00;98073.25;5020027;28;119625;-75
2022/07/12 01:18:05;;;;;;;6.78;3.97;;;14.50;99.90;;;14.20;100.00;98059.19;5019261;28;130512;-74
2022/07/12 01:20:34;;;;;;;7.18;4.50;;;14.40;99.90;;;14.20;100.00;98037.38;5019415;28;129429;-73
2022/07/12 01:23:05;;;;;;;6.88;3.90;;;14.40;99.90;;;14.15;100.00;98045.91;5005299;28;119143;-71
2022/07/12 01:25:33;;;;;;;7.80;3.92;;;14.40;99.90;;;14.14;100.00;98036.91;5020080;28;119959;-76
2022/07/12 01:28:03;;;;;;;6.68;4.20;;;14.40;99.90;;;14.15;100.00;98030.31;5019338;28;130712;-73
2022/07/12 01:30:31;;;;;;;7.45;3.90;;;14.40;99.90;;;14.09;100.00;98025.56;5004596;28;128421;-69
2022/07/12 01:33:01;;;;;;;5.32;3.78;;;14.40;99.90;;;14.10;100.00;98018.91;5018407;28;122287;-76
2022/07/12 01:35:31;;;;;;;5.25;3.70;;;14.30;99.90;;;14.03;100.00;98028.59;5019626;28;122789;-72
2022/07/12 01:38:00;;;;;;;6.68;3.97;;;14.30;99.90;;;14.08;100.00;98007.59;5001155;28;130085;-74
2022/07/12 01:40:31;;;;;;;6.25;4.43;;;14.40;99.90;;;14.08;100.00;98002.91;5019288;28;129487;-71
2022/07/12 01:43:00;;;;;;;5.65;4.28;;;14.40;99.90;;;14.06;100.00;97982.66;5019926;27;120233;-75
2022/07/12 01:45:29;;;;;;;6.45;4.45;;;14.30;99.90;;;14.01;100.00;97978.31;5023377;28;120700;-74
2022/07/12 01:47:58;;;;;;;6.07;4.00;;;14.30;99.90;;;13.97;100.00;97985.66;5022581;28;129927;-69
2022/07/12 01:50:27;;;;;;;7.88;4.05;;;14.20;99.90;;;13.90;100.00;97980.91;5023154;28;129533;-72
2022/07/12 01:52:56;;;;;;;6.25;4.05;;;14.20;99.90;;;13.92;100.00;97975.06;5023010;28;119591;-71
2022/07/12 01:55:24;;;;;;;7.55;4.50;;;14.20;99.90;;;13.90;100.00;97967.25;5025647;28;119658;-74
2022/07/12 01:57:55;;;;;;;7.60;4.88;;;14.20;99.90;;;13.88;100.00;97964.09;5021708;28;130301;-74
2022/07/12 02:00:25;;;;;;;5.53;3.80;;;14.10;99.90;;;13.82;100.00;97941.84;5022710;28;129546;-73
2022/07/12 02:02:53;;;;;;;7.88;4.50;;;14.10;99.90;;;13.83;100.00;97953.53;5022800;28;119859;-70
2022/07/12 02:05:22;;;;;;;7.25;4.13;;;14.20;99.90;;;13.84;100.00;97950.44;5007543;28;118482;-73
2022/07/12 02:07:51;;;;;;;7.30;4.20;;;14.10;99.90;;;13.84;100.00;97925.13;5022177;28;130277;-72
2022/07/12 02:10:20;;;;;;;6.72;3.78;;;14.10;99.90;;;13.77;100.00;97917.63;5024327;28;128178;-75
2022/07/12 02:12:48;;;;;;;7.18;4.55;;;14.00;99.90;;;13.75;100.00;97913.72;5007725;28;119447;-71
2022/07/12 02:15:18;;;;;;;6.68;4.68;;;14.10;99.90;;;13.77;100.00;97916.84;5023483;28;120693;-73
2022/07/12 02:17:47;;;;;;;8.35;4.47;;;14.10;99.90;;;13.82;100.00;97898.22;5007918;28;130576;-68
2022/07/12 02:20:16;;;;;;;10.45;5.30;;;14.10;99.90;;;13.88;100.00;97897.88;5004120;28;129875;-71
2022/07/12 02:22:44;;;;;;;6.03;4.30;;;14.20;99.90;;;13.84;100.00;97889.66;5021004;28;121782;-74
2022/07/12 02:25:13;;;;;;;5.90;4.30;;;14.10;99.90;;;13.80;100.00;97886.13;5007641;28;121608;-74
2022/07/12 02:27:43;;;;;;;6.22;4.00;;;14.10;99.90;;;13.84;100.00;97871.38;5025131;28;130291;-72
2022/07/12 02:30:13;;;;;;;5.90;3.97;;;14.20;99.90;;;13.81;100.00;97893.16;5022136;28;129884;-72
2022/07/12 02:32:43;;;;;;;7.30;4.68;;;14.20;99.90;;;13.85;100.00;97858.50;5022534;28;119592;-70
2022/07/12 02:35:12;;;;;;;5.65;4.47;;;14.20;99.90;;;13.91;100.00;97859.75;5022649;28;120506;-72
2022/07/12 02:37:41;;;;;;;8.32;4.65;;;14.20;99.90;;;13.93;100.00;97852.00;5021920;28;130033;-73
2022/07/12 02:42:56;;;;;;;;;;;14.30;99.90;;;13.85;100.00;97863.97;5021285;28;119157;-74
2022/07/12 02:45:25;;;;;;;6.50;4.07;;;14.30;99.90;;;13.90;100.00;97860.91;5021861;28;120585;-76
2022/07/12 02:47:55;;;;;;;5.00;3.53;;;14.30;99.90;;;13.92;100.00;97834.06;5020374;28;129529;-74
2022/07/12 02:50:24;;;;;;;5.20;3.65;;;14.30;99.90;;;13.96;100.00;97844.97;5023579;28;129332;-75
2022/07/12 02:52:52;;;;;;;6.32;3.97;;;14.30;99.90;;;13.97;100.00;97844.63;5022197;28;119855;-71
2022/07/12 02:55:21;;;;;;;6.05;3.92;;;14.30;99.90;;;13.85;100.00;97831.25;5021788;27;119247;-70
2022/07/12 02:57:49;;;;;;;7.13;3.92;;;14.30;99.90;;;13.87;100.00;97834.41;5006873;28;130354;-73
2022/07/12 03:00:18;;;;;;;6.38;4.38;;;14.30;99.90;;;13.90;100.00;97832.84;5021755;28;129387;-69
2022/07/12 03:02:46;;;;;;;7.45;4.80;;;14.30;99.90;;;13.93;100.00;97811.09;5021880;28;121114;-70
2022/07/12 03:05:17;;;;;;;6.57;4.60;;;14.30;99.90;;;13.95;100.00;97836.03;5007424;28;119061;-71
2022/07/12 03:07:45;;;;;;;6.80;4.90;;;14.30;99.90;;;14.01;100.00;97818.16;5021171;28;130415;-70
2022/07/12 03:10:14;;;;;;;6.57;4.40;;;14.40;99.90;;;14.01;100.00;97818.16;5006894;28;129156;-71
2022/07/12 03:12:43;;;;;;;8.13;4.35;;;14.40;99.90;;;14.05;100.00;97806.50;5020357;28;122556;-72
2022/07/12 03:15:11;;;;;;;6.00;4.80;;;14.40;99.90;;;14.09;100.00;97786.28;5021619;28;121788;-72
2022/07/12 03:17:40;;;;;;;6.75;4.53;;;14.40;99.90;;;14.11;100.00;97796.81;5021033;28;130192;-69
2022/07/12 03:20:11;;;;;;;6.40;4.40;;;14.40;99.90;;;14.12;100.00;97795.66;5019929;28;129925;-74
2022/07/12 03:22:41;;;;;;;5.95;4.20;;;14.50;99.90;;;14.11;100.00;97794.09;5021732;28;119918;-68
2022/07/12 03:25:10;;;;;;;6.90;4.20;;;14.50;99.90;;;14.13;100.00;97794.50;5021519;28;119893;-74
2022/07/12 03:27:39;;;;;;;6.57;4.43;;;14.50;99.90;;;14.09;100.00;97774.59;5021431;28;130502;-75
2022/07/12 03:30:09;;;;;;;5.78;3.90;;;14.50;99.90;;;14.08;100.00;97779.25;5021407;28;129424;-74
2022/07/12 03:32:38;;;;;;;6.05;4.20;;;14.50;99.90;;;14.07;100.00;97776.91;5021402;28;119775;-76
2022/07/12 03:35:08;;;;;;;9.45;4.80;;;14.40;99.90;;;14.08;100.00;97765.63;5006295;28;118394;-73
2022/07/12 03:37:49;;;;;;;6.53;4.05;;;14.50;99.90;;;14.04;100.00;97751.19;5019756;28;130543;-72
2022/07/12 03:40:19;;;;;;;6.50;4.25;;;14.40;99.90;;;14.01;100.00;97757.41;5020842;28;131005;-70
2022/07/12 03:42:49;;;;;;;7.32;3.90;;;14.40;99.90;;;13.92;100.00;97749.50;5006241;28;118716;-70
2022/07/12 03:45:18;;;;;;;5.22;3.95;;;14.30;99.90;;;13.86;100.00;97740.13;5021097;28;119952;-68
2022/07/12 03:47:46;;;;;;;6.82;4.47;;;14.20;99.90;;;13.81;100.00;97730.34;5020783;28;129914;-69
2022/07/12 03:50:15;;;;;;;8.50;5.13;;;14.30;99.90;;;13.85;100.00;97716.72;5020788;28;129327;-68
2022/07/12 03:52:45;;;;;;;6.95;4.68;;;14.20;99.90;;;13.83;100.00;97729.97;5023000;28;119381;-71
2022/07/12 03:55:14;;;;;;;7.10;4.65;;;14.10;99.90;;;13.83;100.00;97719.06;5023682;28;119523;-73
2022/07/12 03:57:43;;;;;;;6.28;4.63;;;14.10;99.90;;;13.77;100.00;97712.38;5020753;28;129844;-74
2022/07/12 04:00:14;;;;;;;5.20;3.88;;;14.00;99.90;;;13.82;100.00;97695.66;5020427;28;129486;-74
2022/07/12 04:02:43;;;;;;;6.85;4.10;;;14.00;99.90;;;13.80;100.00;97695.25;5019771;28;122553;-73
2022/07/12 04:05:14;;;;;;;5.90;3.85;;;14.00;99.90;;;13.86;100.00;97679.34;5025236;27;102707;-73
2022/07/12 04:07:44;;;;;;;5.95;4.43;;;14.00;99.90;;;13.85;100.00;97673.09;5019591;28;130917;-73
2022/07/12 04:10:12;;;;;;;7.53;4.45;;;14.00;99.90;;;13.86;100.00;97666.50;5020483;28;130719;-70
2022/07/12 04:12:41;;;;;;;6.43;4.28;;;14.00;99.90;;;13.85;100.00;97673.09;5020748;28;119382;-69
2022/07/12 04:15:10;;;;;;;6.82;4.15;;;13.90;99.90;;;13.82;100.00;97658.28;5020723;28;119592;-74
2022/07/12 04:17:39;;;;;;;5.85;3.70;;;13.90;99.90;;;13.80;100.00;97654.38;5005570;28;128586;-70
2022/07/12 04:20:11;;;;;;;5.95;3.70;;;14.00;99.90;;;13.82;100.00;97646.59;5020654;28;130185;-70
2022/07/12 04:22:39;;;;;;;5.25;4.00;;;14.10;99.90;;;13.82;100.00;97632.97;5020535;28;119569;-74
2022/07/12 04:25:10;;;;;;;6.10;4.00;;;14.20;99.90;;;13.80;100.00;97648.91;5021004;28;119305;-68
2022/07/12 04:27:39;;;;;;;7.03;4.05;;;14.10;99.90;;;13.79;100.00;97641.88;5019149;28;130187;-74
2022/07/12 04:30:09;;;;;;;7.88;3.95;;;14.10;99.90;;;13.78;100.00;97624.00;5005215;28;129060;-73
2022/07/12 04:32:38;;;;;;;6.28;3.47;;;14.10;99.90;;;13.73;100.00;97610.69;5020562;28;119334;-70
2022/07/12 04:35:07;;;;;;;5.15;2.92;;;14.00;99.90;;;13.77;100.00;97616.97;5022465;28;118273;-73
2022/07/12 04:37:36;;;;;;;5.47;2.80;;;14.10;99.90;;;13.73;100.00;97602.50;5005191;28;128836;-69
2022/07/12 04:40:06;;;;;;;4.93;3.35;;;14.10;99.90;;;13.74;100.00;97596.69;5020279;28;129482;-72
2022/07/12 04:42:36;;;;;;;4.40;3.13;;;14.10;99.90;;;13.77;100.00;97603.34;5020252;28;119626;-74
2022/07/12 04:45:06;;;;;;;6.65;3.65;;;14.00;99.90;;;13.76;100.00;97588.13;5020884;28;119604;-74
2022/07/12 04:47:37;;;;;;;5.70;4.00;;;14.00;99.90;;;13.77;100.00;97595.16;5019962;28;130127;-76
2022/07/12 04:50:07;;;;;;;5.95;3.60;;;14.10;99.90;;;13.78;100.00;97591.28;5019988;28;130088;-69
2022/07/12 04:52:36;;;;;;;4.97;3.13;;;14.00;99.90;;;13.80;100.00;97580.75;5018886;28;122032;-73
2022/07/12 04:55:06;;;;;;;5.43;3.17;;;14.10;99.90;;;13.80;100.00;97583.50;5020898;28;121703;-71
2022/07/12 04:57:36;;;;;;;5.68;3.35;;;14.00;99.90;;;13.77;100.00;97573.34;5019792;28;130242;-74
2022/07/12 05:00:06;;;;;;;6.63;3.50;;;14.00;99.90;;;13.79;100.00;97560.91;5019840;28;129401;-75
2022/07/12 05:02:35;;;;;;;7.75;4.75;;;14.00;99.90;;;13.79;100.00;97581.91;5019971;28;120077;-73
2022/07/12 05:05:04;;;;;;;5.10;3.70;;;14.00;99.90;;;13.79;100.00;97560.91;5020221;28;119417;-73
2022/07/12 05:07:32;;;;;;;4.75;3.22;;;14.00;99.90;;;13.78;100.00;97572.19;5005180;28;130000;-71
2022/07/12 05:10:01;;;;;;;4.93;3.88;;;14.00;99.90;;;13.81;100.00;97546.91;5020177;28;129850;-74
2022/07/12 05:12:29;;;;;;;7.15;3.70;;;14.00;99.90;;;13.83;100.00;97552.75;5019786;28;120083;-73
2022/07/12 05:15:00;;;;;;;5.40;3.20;;;14.00;99.90;;;13.84;100.00;97546.13;5020078;28;119162;-74
2022/07/12 05:17:28;;;;;;;6.60;3.08;;;14.00;99.90;;;13.83;100.00;97545.34;5019094;28;129636;-71
2022/07/12 05:19:57;;;;;;;4.60;2.75;;;14.00;99.90;;;13.81;100.00;97533.25;5023173;28;129276;-68
2022/07/12 05:22:26;;;;;;;5.35;2.70;;;13.90;99.90;;;13.76;100.00;97519.97;5023549;28;119687;-68
2022/07/12 05:24:54;;;;;;;7.15;3.88;;;13.90;99.90;;;13.77;100.00;97518.81;5023487;28;119952;-70
2022/07/12 05:27:23;;;;;;;6.05;3.35;;;13.90;99.90;;;13.76;100.00;97503.63;5023360;28;129884;-71
2022/07/12 05:29:51;;;;;;;6.60;3.70;;;13.90;99.90;;;13.81;100.00;97484.97;5023092;28;129966;-71
2022/07/12 05:32:23;;;;;;;6.28;2.70;;;13.80;99.90;;;13.89;100.00;97496.69;5024006;28;119888;-70
2022/07/12 05:34:52;;;;;;;6.57;2.58;;;13.80;99.90;;;14.05;100.00;97471.06;5006518;28;119502;-72
2022/07/12 05:37:20;;;;;;;5.20;3.15;;;13.80;99.90;;;14.07;100.00;97488.59;5023485;28;130488;-72
2022/07/12 05:39:48;;;;;;;8.40;3.03;;;13.80;99.90;;;14.10;100.00;97487.84;5022960;28;130484;-72
2022/07/12 05:42:17;;;;;;;4.93;3.08;;;13.80;99.90;;;13.99;100.00;97492.44;5003789;28;121925;-71
2022/07/12 05:44:46;;;;;;;8.70;4.03;;;13.70;99.90;;;13.94;100.00;97466.31;5023116;28;121904;-75
2022/07/12 05:47:14;;;;;;;4.93;2.95;;;13.60;99.90;;;13.94;100.00;97473.72;5022852;28;129948;-70
2022/07/12 05:49:45;;;;;;;5.60;3.20;;;13.60;99.90;;;13.97;100.00;97468.28;5004864;28;129433;-76
2022/07/12 05:55:06;;;;;;;4.63;2.85;;;13.60;99.90;;;14.09;100.00;97458.22;4951545;28;118560;-69
2022/07/12 05:57:34;;;;;;;5.25;2.72;;;13.60;99.90;;;14.09;100.00;97459.00;5022242;28;130450;-73
2022/07/12 06:00:04;;;;;;;4.40;2.40;;;13.60;99.90;;;14.09;100.00;97452.75;5007996;28;128468;-73
2022/07/12 06:02:33;;;;;;;4.45;2.55;;;13.70;99.90;;;14.13;100.00;97448.88;5022609;28;119896;-74
2022/07/12 06:05:02;;;;;;;3.65;2.30;;;13.70;99.90;;;14.15;100.00;97451.22;5022723;28;120025;-70
2022/07/12 06:07:31;;;;;;;4.97;2.40;;;13.60;99.90;;;14.11;100.00;97451.19;5020827;28;130035;-73
2022/07/12 06:10:00;;;;;;;3.65;2.10;;;13.60;99.90;;;14.10;100.00;97444.19;5022071;28;130007;-72
2022/07/12 06:12:28;;;;;;;4.30;2.10;;;13.60;99.90;;;14.04;100.00;97443.00;5023385;28;119294;-74
2022/07/12 06:14:57;;;;;;;4.15;2.15;;;13.60;99.90;;;14.01;100.00;97439.09;5007462;28;118759;-75
2022/07/12 06:17:26;;;;;;;4.43;2.13;;;13.60;99.90;;;14.02;100.00;97437.94;5020766;28;130086;-71
2022/07/12 06:19:54;;;;;;;4.75;2.58;;;13.60;99.90;;;14.08;100.00;97423.91;5024024;28;129165;-76
2022/07/12 06:22:24;;;;;;;4.63;2.50;;;13.60;99.90;;;14.08;100.00;97424.69;5011259;28;120117;-71
2022/07/12 06:24:53;;;;;;;3.30;2.00;;;13.70;99.90;;;14.14;100.00;97411.47;4980495;28;119497;-72
2022/07/12 06:27:23;;;;;;;3.03;1.95;;;13.60;99.90;;;14.24;100.00;97409.91;4983557;28;130688;-71
2022/07/12 06:29:52;;;;;;;2.88;1.80;;;13.70;99.90;;;14.26;100.00;97411.09;4983198;28;129452;-71
2022/07/12 06:32:20;;;;;;;2.63;1.52;;;13.60;99.90;;;14.27;100.00;97398.25;5001409;28;121825;-73
2022/07/12 06:34:49;;;;;;;4.78;1.60;;;13.50;99.90;;;14.27;100.00;97392.78;4986647;28;121727;-76
2022/07/12 06:37:18;;;;;;;4.05;2.25;;;13.60;99.90;;;14.27;100.00;97388.09;5004376;28;129949;-75
2022/07/12 06:39:48;;;;;;;5.47;3.03;;;13.50;99.90;;;14.36;100.00;97396.69;5001373;28;130102;-72
2022/07/12 06:42:17;;;;;;;2.95;1.33;;;13.70;99.90;;;14.48;100.00;97389.31;4986915;28;119153;-74
2022/07/12 06:44:55;;;;;;;3.97;1.60;;;13.60;99.90;;;14.47;100.00;97374.09;5001903;28;119913;-70
2022/07/12 06:47:24;;;;;;;3.20;1.80;;;13.60;99.90;;;14.49;100.00;97371.75;5001648;28;130512;-74
2022/07/12 06:49:52;;;;;;;2.95;1.50;;;13.70;99.90;;;14.53;100.00;97381.50;5001957;28;129423;-76
2022/07/12 06:52:21;;;;;;;3.50;1.80;;;13.70;99.90;;;14.45;100.00;97376.44;5001794;28;119773;-69
2022/07/12 06:54:52;;;;;;;3.08;1.50;;;13.70;99.90;;;14.52;100.00;97368.25;4981876;28;119123;-79
2022/07/12 06:57:20;;;;;;;4.40;2.10;;;13.80;99.90;;;14.77;100.00;97370.22;5019973;28;129676;-74
2022/07/12 06:59:50;;;;;;;3.15;1.80;;;14.00;99.90;;;14.86;100.00;97367.88;5021314;28;129637;-72
2022/07/12 07:02:19;;;;;;;3.28;1.60;;;13.90;99.90;;;14.85;100.00;97367.09;5021327;28;119872;-78
2022/07/12 07:04:48;;;;;;;3.20;1.50;;;13.90;99.90;;;14.68;100.00;97368.69;5021642;28;119492;-71
2022/07/12 07:07:17;;;;;;;2.13;1.00;;;13.80;99.90;;;14.53;100.00;97347.97;5020987;28;130668;-74
2022/07/12 07:09:45;;;;;;;4.00;1.55;;;13.80;99.90;;;14.54;100.00;97347.59;5020978;28;129350;-72
2022/07/12 07:12:15;;;;;;;2.20;1.20;;;13.80;99.90;;;14.45;100.00;97344.47;5021579;28;119472;-72
2022/07/12 07:14:44;;;;;;;5.22;1.50;;;13.80;99.90;;;14.44;100.00;97347.59;5022139;28;119323;-71
2022/07/12 07:17:16;;;;;;;3.03;1.40;;;13.70;99.90;;;14.47;100.00;97335.91;5020204;28;130254;-72
2022/07/12 07:19:45;;;;;;;3.38;1.50;;;13.80;99.90;;;14.42;100.00;97339.78;5020721;28;130314;-69
2022/07/12 07:22:14;;;;;;;2.40;1.23;;;13.80;99.90;;;14.37;100.00;97343.69;5020465;28;122351;-72
2022/07/12 07:24:43;;;;;;;4.53;1.70;;;13.80;99.90;;;14.41;100.00;97348.38;5006355;28;120474;-75
2022/07/12 07:27:12;;;;;;;2.22;1.20;;;13.80;99.90;;;14.44;100.00;97350.31;5006266;28;130323;-71
2022/07/12 07:32:28;;;;;;;2.25;1.50;;;13.80;99.90;;;14.45;100.00;97335.50;5013474;28;119836;-72
2022/07/12 07:34:56;;;;;;;3.97;1.40;;;13.80;99.90;;;14.47;100.00;97338.63;5003374;28;119389;-72
2022/07/12 07:37:24;;;;;;;2.75;1.40;;;13.80;99.90;;;14.51;100.00;97336.69;5020576;28;130590;-72
2022/07/12 07:39:53;;;;;;;2.35;1.55;;;13.80;99.90;;;14.36;100.00;97333.94;5021764;28;130589;-72
2022/07/12 07:42:22;;;;;;;1.60;1.30;;;13.80;99.90;;;14.48;100.00;97332.00;5006515;28;118737;-73
2022/07/12 07:44:52;;;;;;;3.33;1.20;;;13.80;99.90;;;14.48;100.00;97326.53;5005007;28;119516;-70
2022/07/12 07:47:21;;;;;;;1.88;1.20;;;13.80;99.90;;;14.54;100.00;97325.00;5019477;28;130933;-72
2022/07/12 07:49:49;;;;;;;2.65;1.33;;;13.90;99.90;;;14.61;100.00;97326.94;5020698;28;129478;-72
2022/07/12 07:52:18;;;;;;;4.20;1.70;;;14.00;99.90;;;14.67;100.00;97328.88;5021190;28;120063;-80
2022/07/12 07:54:46;;;;;;;3.05;1.20;;;13.90;99.90;;;14.70;100.00;97317.19;5022748;27;120042;-70
2022/07/12 07:57:15;;;;;;;5.68;1.77;;;13.90;99.90;;;14.70;100.00;97322.66;5020485;28;131141;-72
2022/07/12 07:59:43;;;;;;;2.83;1.45;;;13.90;99.90;;;14.68;100.00;97316.81;5002937;28;129579;-74
2022/07/12 08:02:14;;;;;;;4.07;1.50;;;13.90;99.90;;;14.63;100.00;97322.66;5020804;28;119785;-72
2022/07/12 08:04:43;;;;;;;2.30;1.10;;;14.00;99.90;;;14.54;100.00;97314.06;5021197;28;119405;-69
2022/07/12 08:07:12;;;;;;;1.92;1.33;;;13.90;99.90;;;14.51;100.00;97312.88;5005583;28;129979;-77
2022/07/12 08:09:40;;;;;;;4.80;1.27;;;13.90;99.90;;;14.53;100.00;97313.28;5020583;28;129480;-75
2022/07/12 08:12:09;;;;;;;2.72;1.20;;;14.00;99.90;;;14.61;100.00;97308.63;5019248;28;121998;-76
2022/07/12 08:14:38;;;;;;;1.30;0.93;;;14.00;99.90;;;14.58;100.00;97298.44;5020690;28;122452;-73
2022/07/12 08:17:07;;;;;;;2.97;1.15;;;13.90;99.90;;;14.62;100.00;97304.72;5006991;28;130431;-74
2022/07/12 08:19:37;;;;;;;3.10;1.25;;;14.00;99.90;;;14.79;100.00;97302.34;4998937;28;129288;-73
2022/07/12 08:22:06;;;;;;;1.77;1.00;;;14.00;99.90;;;14.83;100.00;97303.13;4996993;28;119507;-74
2022/07/12 08:24:34;;;;;;;2.92;1.00;;;14.10;99.90;;;14.77;100.00;97305.47;4998849;28;119276;-73
2022/07/12 08:27:04;;;;;;;9.88;1.30;;;14.00;99.90;;;14.86;100.00;97310.53;4982714;28;130053;-76
2022/07/12 08:29:32;;;;;;;2.58;0.95;;;14.10;99.90;;;14.80;100.00;97304.69;5000336;28;129552;-77
2022/07/12 08:32:02;;;;;;;6.47;1.00;;;14.00;99.90;;;14.92;100.00;97303.50;5000150;28;120872;-79
2022/07/12 08:34:31;;;;;;;2.58;0.95;;;14.00;99.90;;;14.91;100.00;97294.53;4985645;28;119351;-78
2022/07/12 08:37:01;;;;;;;2.78;1.10;;;14.00;99.90;;;14.97;100.00;97303.09;4997160;28;129940;-79
2022/07/12 08:39:29;;;;;;;4.07;1.15;;;14.10;99.90;;;15.00;100.00;97296.84;4999757;28;129360;-79
2022/07/12 08:41:58;;;;;;;1.52;1.00;;;14.10;99.90;;;14.92;100.00;97290.63;4985686;28;119621;-74
2022/07/12 08:44:27;;;;;;;1.67;0.90;;;14.10;99.90;;;14.88;100.00;97291.81;5000309;28;119288;-75
2022/07/12 08:46:55;;;;;;;1.30;0.80;;;13.90;99.90;;;14.88;100.00;97291.81;4999722;28;129738;-70
2022/07/12 08:49:24;;;;;;;1.00;0.90;;;13.90;99.90;;;14.83;100.00;97292.22;4999637;28;130260;-75
2022/07/12 08:51:53;;;;;;;2.10;0.90;;;14.00;99.90;;;14.89;100.00;97290.63;4988832;28;119508;-75
2022/07/12 08:54:22;;;;;;;1.45;0.80;;;14.00;99.90;;;15.02;100.00;97289.06;4985531;28;118365;-72
2022/07/12 08:56:51;;;;;;;1.77;0.80;;;14.20;99.90;;;15.03;100.00;97279.66;4984795;28;129157;-78
2022/07/12 08:59:21;;;;;;;1.35;1.00;;;14.20;99.90;;;15.15;100.00;97286.66;4998512;28;129473;-72
2022/07/12 09:01:51;;;;;;;1.90;1.20;;;14.40;99.90;;;15.16;100.00;97292.91;4998336;28;122979;-74
2022/07/12 09:04:22;;;;;;;2.38;1.00;;;14.30;99.90;;;15.34;100.00;97282.69;4984950;28;120635;-73
2022/07/12 09:06:51;;;;;;;2.80;1.00;;;14.30;99.90;;;15.42;100.00;97278.72;4999148;28;131022;-74
2022/07/12 09:09:30;;;;;;;1.73;0.82;;;14.30;99.90;;;15.41;100.00;97282.66;4998527;28;129473;-72
2022/07/12 09:11:58;;;;;;;1.30;1.00;;;14.30;99.90;;;15.53;100.00;97277.91;4999161;28;119560;-73
2022/07/12 09:14:28;;;;;;;2.42;0.90;;;14.50;99.90;;;15.60;100.00;97277.88;4999637;28;119451;-75
2022/07/12 09:17:01;;;;;;;1.85;0.98;;;14.50;99.90;;;15.50;100.00;97273.25;4999208;28;130112;-74
2022/07/12 09:19:30;;;;;;;1.88;0.82;;;14.50;99.90;;;15.58;100.00;97274.75;4999451;28;129335;-72
2022/07/12 09:21:58;;;;;;;1.40;0.90;;;14.50;99.90;;;15.62;100.00;97279.03;4998862;28;119546;-74
2022/07/12 09:24:29;;;;;;;2.15;0.90;;;14.40;99.90;;;15.52;100.00;97276.34;4985569;28;118960;-76
2022/07/12 09:27:02;;;;;;;1.85;1.00;;;14.40;99.90;;;15.42;100.00;97273.25;4994621;28;129586;-74
2022/07/12 09:29:32;;;;;;;0.70;0.68;;;14.40;99.90;;;15.37;100.00;97265.50;4989094;28;129397;-78
2022/07/12 09:37:44;;;;;;;1.50;0.90;;;14.40;99.90;;;15.26;100.00;97265.53;4982750;28;129543;-74
2022/07/12 09:40:14;;;;;;;1.80;1.00;;;14.50;99.90;;;15.39;100.00;97263.13;5000599;28;129773;-75
2022/07/12 09:42:44;;;;;;;1.30;0.90;;;14.50;99.90;;;15.45;100.00;97271.69;4987986;28;119317;-79
2022/07/12 09:45:13;;;;;;;1.88;1.02;;;14.60;99.90;;;15.49;100.00;97272.47;5001774;28;119454;-75
2022/07/12 09:47:45;;;;;;;1.77;0.70;;;14.50;99.90;;;15.56;100.00;97264.22;5016000;28;130199;-74
2022/07/12 09:50:14;;;;;;;1.70;0.80;;;14.50;99.90;;;15.69;100.00;97264.56;5016995;28;129559;-75
2022/07/12 09:52:46;;;;;;;2.08;1.20;;;14.80;99.90;;;15.78;100.00;97256.72;5018480;28;121783;-73
2022/07/12 09:55:20;;;;;;;2.60;0.90;;;14.70;99.90;;;15.80;100.00;97259.06;5004253;28;121107;-76
2022/07/12 09:57:51;;;;;;;1.98;1.10;;;14.90;99.90;;;15.87;100.00;97263.69;5020992;28;130225;-72
2022/07/12 10:00:21;;;;;;;2.25;1.02;;;15.10;99.90;;;15.87;100.00;97252.75;5003228;28;130203;-74
2022/07/12 10:02:54;;;;;;;2.83;0.95;;;15.20;99.90;;;15.89;100.00;97258.59;5023326;28;120251;-73
2022/07/12 10:05:26;;;;;;;1.92;1.10;;;15.10;99.90;;;15.89;100.00;97256.63;5015528;28;119184;-77
2022/07/12 10:07:55;;;;;;;1.98;0.90;;;15.20;99.90;;;15.90;100.00;97252.72;5024281;28;131234;-77
2022/07/12 10:10:26;;;;;;;2.33;1.10;;;15.10;99.90;;;15.91;100.00;97246.06;5023510;28;130508;-72
2022/07/12 10:12:56;;;;;;;2.30;1.40;;;15.40;99.90;;;15.97;100.00;97251.88;5023000;28;120627;-71
2022/07/12 10:15:28;;;;;;;2.65;1.60;;;15.30;99.90;;;16.06;100.00;97254.94;4999877;28;118070;-72
2022/07/12 10:17:59;;;;;;;2.60;1.55;;;15.60;99.90;;;16.28;100.00;97244.63;5020268;28;129830;-71
2022/07/12 10:20:29;;;;;;;3.17;1.52;;;15.80;99.90;;;16.38;100.00;97253.09;5021918;28;129728;-71
2022/07/12 10:23:33;;;;;;;3.03;1.20;;;15.60;99.90;;;16.56;100.00;97242.00;5022628;28;119640;-72
2022/07/12 10:26:39;;;;;;;3.13;1.30;;;15.50;99.90;;;16.69;100.00;97237.59;5022383;28;119390;-70
2022/07/12 10:29:10;;;;;;;9.18;1.35;;;15.50;99.90;;;16.73;100.00;97241.03;5021953;28;130074;-73